Riverside, PA (17868)

01:40 AM EST del 10 Febbraio 2016 (GMT -0500)
APRSWXNET | | Change Station
CLOSE
Current Station
Stazione meteo personale
Location: Washingtonville, PA
Altitudine: 839 ft
Stazioni meteo nelle vicinanze

Alt. 839 ft 41.01 °N, 76.68 °W | Updated 22 minutes ago

Coperto
Coperto
26 °F
Sembra 26 °F
N
0
Vento Variabile Vento da ESE
Gusts 0.0 mph

Oggi
Massima -- | Minima -- °F
--% Possibilità di precip.
Ieri
Massima -- | Minima -- °F
Precip. -- in
Pressione 29.63 in
Visibilità 10.0 miglia
Nuvole Alcuni 2500 ft
Coperto 7000 ft
Raffreddamento del vento 26 °F
Punto di rugiada 23 °F
Umidità 90%
Piovosità in
Spessore del manto nevoso Non disponibile.
7:07 AM 5:34 PM
Luna crescente, 4% visible
METAR KSEG 100553Z AUTO VRB04KT 10SM FEW025 OVC070 M01/M04 A2961 RMK AO2 SLP032 60004 T10111039 10000 21011 53002
Pressione 29.63 in
Visibilità 10.0 miglia
Nuvole Alcuni 2500 ft
Coperto 7000 ft
Raffreddamento del vento 26 °F
Punto di rugiada 23 °F
Umidità 90%
Piovosità in
Spessore del manto nevoso Non disponibile.
7:07 AM 5:34 PM
Luna crescente, 4% visible
METAR KSEG 100553Z AUTO VRB04KT 10SM FEW025 OVC070 M01/M04 A2961 RMK AO2 SLP032 60004 T10111039 10000 21011 53002

10-Day Weather Forecast

Almanac

Astronomia

Feb. 10, 2016 Alba Tramonto
Ora attuale
Crepuscolo civile
Crepuscolo nautico
Crepuscolo astronomico
Luna
Estensione della luce visibile
Lunghezza del giorno
Tomorrow will be .
, % of the Moon is Illuminated

Gli estremi di oggi

State Highs State Lows

Community

WunderPhotos

Upload Photos

1,891,826 foto caricate!

WunderBlog® & News

Nearby

Qualità dell'aria

  Qualità dell'aria Indice AQ Inquinante
Not available.

Profondità neve

Stazione Profondità Altitudine

Attività sismica

Città  Distanza Mag. Data & Ora
Minimo Magnitudo Mostrato è 2.5.

Temperature delle acque costiere

Località Temperatura

Stations

Stazioni meteo nelle vicinanze

Ubicazione della stazione Temp. Raffreddamento del vento Punto di rugiada Umidità Vento Precip. Alt. Aggiornato Tipo
                   

Watches & Warnings

There are currently no watches in effect.